createdAt,value
2023-01-27T00:01:29.629Z,33.57
2023-01-27T00:03:58.045Z,33.90
2023-01-27T00:06:26.511Z,32.57
2023-01-27T00:08:54.777Z,33.70
2023-01-27T00:11:40.381Z,33.60
2023-01-27T00:14:08.678Z,32.53
2023-01-27T00:16:38.326Z,32.47
2023-01-27T00:19:07.539Z,32.27
2023-01-27T00:21:53.229Z,32.43
2023-01-27T00:24:39.344Z,32.77
2023-01-27T00:27:09.500Z,32.53
2023-01-27T00:29:37.912Z,33.07
2023-01-27T00:32:25.034Z,33.00
2023-01-27T00:34:53.624Z,32.73
2023-01-27T00:37:22.809Z,32.13
2023-01-27T00:39:51.474Z,32.83
2023-01-27T00:42:19.608Z,32.60
2023-01-27T00:45:08.077Z,34.00
2023-01-27T00:47:37.758Z,32.90
2023-01-27T00:50:07.172Z,33.97
2023-01-27T00:52:35.537Z,32.90
2023-01-27T00:55:03.888Z,32.80
2023-01-27T00:57:35.973Z,32.57
2023-01-27T01:00:04.551Z,32.63
2023-01-27T01:02:33.092Z,33.43
2023-01-27T01:05:02.869Z,33.43
2023-01-27T01:07:31.285Z,33.87
2023-01-27T01:09:59.668Z,34.07
2023-01-27T01:12:27.990Z,33.53
2023-01-27T01:14:56.091Z,34.53
2023-01-27T01:17:24.300Z,33.70
2023-01-27T01:19:52.565Z,34.20
2023-01-27T01:22:22.405Z,34.47
2023-01-27T01:24:50.650Z,34.50
2023-01-27T01:27:18.756Z,33.20
2023-01-27T01:29:46.855Z,34.33
2023-01-27T01:32:15.265Z,34.20
2023-01-27T01:34:44.402Z,34.40
2023-01-27T01:37:13.598Z,34.87
2023-01-27T01:39:43.155Z,34.43
2023-01-27T01:42:11.368Z,34.57
2023-01-27T01:44:44.973Z,35.57
2023-01-27T01:47:17.723Z,34.90
2023-01-27T01:49:48.273Z,33.90
2023-01-27T01:52:20.220Z,33.70
2023-01-27T01:54:54.880Z,33.57
2023-01-27T01:57:27.626Z,34.60
2023-01-27T01:59:59.558Z,34.87
2023-01-27T02:02:28.058Z,34.20
2023-01-27T02:04:58.768Z,35.00
2023-01-27T02:07:34.764Z,34.20
2023-01-27T02:10:04.805Z,34.93
2023-01-27T02:12:33.134Z,34.47
2023-01-27T02:15:01.392Z,34.67
2023-01-27T02:17:29.891Z,35.27
2023-01-27T02:20:08.448Z,36.17
2023-01-27T02:22:42.963Z,34.87
2023-01-27T02:25:20.749Z,35.70
2023-01-27T02:27:50.299Z,35.73
2023-01-27T02:30:18.753Z,34.67
2023-01-27T02:32:47.013Z,35.80
2023-01-27T02:35:20.598Z,36.30
2023-01-27T02:37:49.269Z,36.50
2023-01-27T02:40:18.892Z,35.37
2023-01-27T02:42:47.189Z,35.60
2023-01-27T02:45:16.780Z,36.63
2023-01-27T02:47:45.271Z,36.37
2023-01-27T02:50:13.409Z,35.90
2023-01-27T02:52:41.476Z,36.23
2023-01-27T02:55:11.261Z,36.57
2023-01-27T02:57:39.496Z,35.63
2023-01-27T03:00:09.663Z,36.13
2023-01-27T03:02:39.628Z,35.40
2023-01-27T03:05:08.211Z,36.67
2023-01-27T03:07:37.457Z,37.03
2023-01-27T03:10:05.754Z,36.40
2023-01-27T03:12:33.972Z,37.90
2023-01-27T03:15:19.471Z,36.50
2023-01-27T03:18:06.210Z,38.67
2023-01-27T03:20:34.291Z,36.83
2023-01-27T03:23:02.405Z,36.57
2023-01-27T03:25:30.978Z,38.27
2023-01-27T03:28:00.137Z,38.93
2023-01-27T03:30:28.774Z,38.73
2023-01-27T03:32:59.329Z,38.57
2023-01-27T03:35:34.058Z,40.27
2023-01-27T03:38:19.615Z,40.13
2023-01-27T03:41:05.276Z,40.10
2023-01-27T03:43:50.709Z,40.13
2023-01-27T03:46:22.265Z,38.73
2023-01-27T03:48:53.459Z,41.13
2023-01-27T03:51:23.511Z,39.37
2023-01-27T03:53:52.015Z,41.57
2023-01-27T03:56:21.432Z,41.90
2023-01-27T03:58:51.135Z,40.20
2023-01-27T04:01:20.797Z,40.47
2023-01-27T04:04:11.763Z,40.73
2023-01-27T04:06:55.316Z,40.00
2023-01-27T04:09:25.526Z,38.87
2023-01-27T04:11:55.405Z,41.10
2023-01-27T04:14:24.940Z,41.97
2023-01-27T04:16:53.486Z,40.77
2023-01-27T04:19:22.938Z,41.37
2023-01-27T04:21:51.231Z,39.70
2023-01-27T04:24:24.538Z,39.63
2023-01-27T04:26:56.203Z,39.13
2023-01-27T04:29:26.410Z,40.27
2023-01-27T04:31:55.111Z,39.60
2023-01-27T04:34:24.825Z,40.57
2023-01-27T04:36:53.075Z,41.10
2023-01-27T04:39:21.369Z,39.40
2023-01-27T04:41:51.229Z,38.90
2023-01-27T04:44:20.419Z,39.83
2023-01-27T04:46:49.168Z,39.07
2023-01-27T04:49:17.354Z,40.30
2023-01-27T04:51:47.637Z,41.23
2023-01-27T04:54:15.661Z,40.07
2023-01-27T04:56:55.269Z,41.17
2023-01-27T04:59:24.202Z,40.83
2023-01-27T05:01:52.466Z,37.43
2023-01-27T05:04:24.402Z,38.43
2023-01-27T05:07:06.810Z,38.70
2023-01-27T05:09:36.910Z,37.20
2023-01-27T05:12:06.607Z,36.60
2023-01-27T05:14:39.733Z,34.97
2023-01-27T05:17:24.266Z,34.73
2023-01-27T05:19:57.326Z,34.20
2023-01-27T05:22:28.668Z,33.33
2023-01-27T05:25:00.526Z,33.17
2023-01-27T05:27:30.585Z,33.13
2023-01-27T05:55:30.641Z,34.63
2023-01-27T06:01:58.964Z,33.10
2023-01-27T06:04:31.104Z,32.03
2023-01-27T06:07:01.000Z,33.13
2023-01-27T06:09:29.357Z,33.33
2023-01-27T06:11:58.982Z,33.77
2023-01-27T06:14:27.191Z,33.00
2023-01-27T06:17:04.586Z,33.53
2023-01-27T06:19:36.743Z,32.03
2023-01-27T06:22:04.985Z,32.60
2023-01-27T06:24:36.129Z,32.73
2023-01-27T06:27:04.278Z,33.20
2023-01-27T06:29:33.071Z,32.13
2023-01-27T06:36:21.222Z,31.83
2023-01-27T06:39:01.583Z,30.40
2023-01-27T06:41:32.386Z,30.47
2023-01-27T06:44:05.865Z,30.63
2023-01-27T06:47:07.361Z,29.20
2023-01-27T06:49:38.241Z,29.50
2023-01-27T06:52:10.319Z,29.77
2023-01-27T06:54:41.845Z,30.03
2023-01-27T06:57:18.497Z,30.60
2023-01-27T06:59:49.003Z,30.07
2023-01-27T07:02:54.058Z,31.77
2023-01-27T07:06:33.060Z,31.40
2023-01-27T07:09:07.169Z,31.13
2023-01-27T07:15:51.662Z,29.47
2023-01-27T07:21:40.942Z,30.40
2023-01-27T07:24:20.206Z,30.53
2023-01-27T07:26:48.584Z,29.57
2023-01-27T07:29:16.873Z,29.53
2023-01-27T07:31:45.146Z,29.93
2023-01-27T07:34:38.976Z,29.90
2023-01-27T07:37:08.738Z,29.97
2023-01-27T07:39:39.930Z,30.57
2023-01-27T07:45:25.548Z,29.57
2023-01-27T07:47:56.380Z,28.63
2023-01-27T07:50:43.408Z,28.50
2023-01-27T07:53:12.085Z,28.90
2023-01-27T07:55:41.755Z,29.27
2023-01-27T07:58:56.288Z,30.13
2023-01-27T08:01:25.552Z,30.20
2023-01-27T08:03:53.796Z,30.17
2023-01-27T08:06:22.464Z,30.97
2023-01-27T08:08:50.691Z,31.17
2023-01-27T08:11:20.521Z,30.30
2023-01-27T08:13:48.685Z,31.27
2023-01-27T08:16:17.721Z,30.23
2023-01-27T08:18:54.860Z,30.00
2023-01-27T08:21:23.191Z,30.47
2023-01-27T08:23:51.428Z,30.33
2023-01-27T08:26:24.207Z,28.23
2023-01-27T08:28:53.091Z,27.07
2023-01-27T08:31:33.291Z,26.60
2023-01-27T08:34:01.841Z,26.87
2023-01-27T08:36:32.592Z,26.67
2023-01-27T08:39:00.918Z,26.97
2023-01-27T08:41:31.380Z,26.40
2023-01-27T08:46:44.202Z,26.23
2023-01-27T08:49:14.267Z,26.47
2023-01-27T08:51:42.836Z,27.67
2023-01-27T08:54:40.574Z,27.27
2023-01-27T08:57:10.262Z,26.47
2023-01-27T08:59:38.517Z,27.60
2023-01-27T09:02:34.618Z,29.27
2023-01-27T09:05:02.939Z,28.60
2023-01-27T09:07:31.344Z,30.00
2023-01-27T09:10:15.501Z,30.97
2023-01-27T09:12:55.992Z,29.70
2023-01-27T09:15:24.406Z,30.83
2023-01-27T09:17:52.643Z,31.50
2023-01-27T09:20:21.123Z,29.83
2023-01-27T09:22:49.284Z,29.43
2023-01-27T09:25:18.863Z,30.97
2023-01-27T09:27:48.673Z,30.57
2023-01-27T09:30:17.832Z,30.50
2023-01-27T09:33:24.148Z,30.77
2023-01-27T09:36:42.178Z,31.77
2023-01-27T09:39:13.229Z,30.93
2023-01-27T09:42:19.810Z,30.10
2023-01-27T09:45:17.792Z,30.27
2023-01-27T09:51:34.866Z,27.57
2023-01-27T09:54:44.401Z,27.60
2023-01-27T09:58:07.581Z,28.80
2023-01-27T10:01:06.915Z,28.43
2023-01-27T10:07:47.620Z,27.77
2023-01-27T10:10:35.012Z,27.97
2023-01-27T10:13:36.352Z,27.23
2023-01-27T10:16:23.404Z,27.17
2023-01-27T10:19:28.108Z,26.93
2023-01-27T10:22:55.605Z,27.57
2023-01-27T10:26:23.403Z,26.10
2023-01-27T10:28:59.222Z,27.57
2023-01-27T10:31:30.568Z,25.73
2023-01-27T10:34:07.073Z,25.67
2023-01-27T10:37:41.409Z,25.17
2023-01-27T10:40:29.099Z,25.00
2023-01-27T10:43:38.737Z,25.00
2023-01-27T10:46:51.526Z,24.17
2023-01-27T10:50:05.260Z,24.80
2023-01-27T10:52:38.188Z,24.50
2023-01-27T10:55:19.652Z,24.37
2023-01-27T10:57:52.580Z,24.33
2023-01-27T11:03:25.786Z,23.17
2023-01-27T11:05:57.883Z,23.80
2023-01-27T11:12:30.757Z,24.27
2023-01-27T11:15:02.685Z,23.03
2023-01-27T11:21:02.671Z,23.13
2023-01-27T11:23:35.671Z,23.60
2023-01-27T11:29:47.921Z,19.80
2023-01-27T11:32:24.578Z,20.03
2023-01-27T11:35:04.272Z,20.07
2023-01-27T11:37:35.333Z,19.83
2023-01-27T11:40:05.324Z,18.93
2023-01-27T11:42:35.788Z,18.67
2023-01-27T11:45:04.537Z,20.70
2023-01-27T11:47:37.454Z,20.83
2023-01-27T11:50:08.280Z,19.73
2023-01-27T11:52:36.577Z,20.20
2023-01-27T11:55:08.500Z,22.47
2023-01-27T11:57:39.224Z,21.50
2023-01-27T12:00:17.841Z,21.73
2023-01-27T12:02:55.284Z,21.70
2023-01-27T12:05:52.912Z,21.30
2023-01-27T12:08:36.979Z,22.63
2023-01-27T12:11:19.706Z,22.57
2023-01-27T12:13:53.400Z,21.73
2023-01-27T12:16:22.669Z,21.70
2023-01-27T12:19:29.478Z,24.00
2023-01-27T12:22:05.388Z,26.03
2023-01-27T12:24:41.374Z,25.07
2023-01-27T12:27:24.166Z,25.97
2023-01-27T12:29:56.277Z,24.90
2023-01-27T12:32:35.147Z,24.53
2023-01-27T12:35:04.274Z,24.70
2023-01-27T12:41:05.206Z,23.63
2023-01-27T12:43:33.926Z,23.77
2023-01-27T12:46:23.478Z,24.87
2023-01-27T12:48:53.806Z,24.83
2023-01-27T12:52:06.597Z,24.43
2023-01-27T12:55:53.167Z,25.00
2023-01-27T12:58:36.078Z,23.90
2023-01-27T13:02:04.009Z,25.90
2023-01-27T13:08:20.943Z,26.27
2023-01-27T13:14:45.235Z,28.27
2023-01-27T13:17:43.766Z,28.50
2023-01-27T13:20:20.825Z,29.93
2023-01-27T13:22:52.852Z,30.77
2023-01-27T13:25:25.579Z,30.93
2023-01-27T13:28:01.146Z,32.00
2023-01-27T13:30:36.971Z,30.27
2023-01-27T13:36:47.293Z,30.83
2023-01-27T13:39:20.092Z,30.97
2023-01-27T13:41:53.419Z,31.20
2023-01-27T13:44:31.100Z,31.07
2023-01-27T13:47:05.617Z,32.07
2023-01-27T13:49:41.010Z,31.50
2023-01-27T13:52:39.433Z,31.37
2023-01-27T13:56:13.762Z,31.97
2023-01-27T13:58:55.994Z,31.57
2023-01-27T14:01:57.346Z,32.33
2023-01-27T14:04:43.968Z,32.13
2023-01-27T14:07:25.875Z,32.60
2023-01-27T14:11:25.297Z,32.17
2023-01-27T14:15:06.275Z,31.80
2023-01-27T14:18:41.178Z,32.13
2023-01-27T14:21:43.313Z,32.53
2023-01-27T14:27:46.138Z,32.23
2023-01-27T14:30:51.608Z,32.57
2023-01-27T14:33:56.926Z,31.00
2023-01-27T14:37:04.903Z,31.27
2023-01-27T14:40:22.585Z,32.07
2023-01-27T14:43:06.310Z,31.10
2023-01-27T14:45:57.159Z,30.77
2023-01-27T14:49:16.895Z,31.50
2023-01-27T14:52:01.364Z,30.47
2023-01-27T14:55:15.371Z,31.37
2023-01-27T14:57:56.090Z,32.53
2023-01-27T15:01:04.186Z,32.47
2023-01-27T15:03:51.771Z,32.80
2023-01-27T15:06:36.818Z,31.97
2023-01-27T15:09:16.142Z,32.70
2023-01-27T15:12:00.259Z,31.73
2023-01-27T15:15:05.536Z,32.00
2023-01-27T15:17:57.241Z,31.73
2023-01-27T15:20:42.307Z,30.73
2023-01-27T15:23:28.659Z,30.90
2023-01-27T15:26:01.118Z,31.70
2023-01-27T15:28:37.122Z,31.30
2023-01-27T15:31:24.647Z,31.00
2023-01-27T15:33:55.938Z,31.10
2023-01-27T15:36:38.061Z,31.17
2023-01-27T15:39:23.824Z,30.57
2023-01-27T15:42:22.246Z,30.40
2023-01-27T15:45:01.115Z,31.03
2023-01-27T15:47:37.252Z,31.07
2023-01-27T15:50:33.642Z,31.50
2023-01-27T15:53:14.150Z,32.03
2023-01-27T15:56:04.862Z,32.03
2023-01-27T15:58:42.544Z,31.13
2023-01-27T16:01:26.015Z,32.27
2023-01-27T16:04:07.023Z,32.63
2023-01-27T16:06:44.965Z,32.50
2023-01-27T16:09:25.122Z,33.00
2023-01-27T16:12:47.865Z,33.17
2023-01-27T16:16:34.624Z,33.80
2023-01-27T16:22:23.924Z,31.70
2023-01-27T16:24:58.941Z,32.50
2023-01-27T16:27:41.186Z,32.83
2023-01-27T16:30:33.526Z,32.30
2023-01-27T16:36:56.059Z,32.23
2023-01-27T16:39:34.576Z,32.83
2023-01-27T16:42:03.364Z,32.57
2023-01-27T16:44:54.865Z,31.90
2023-01-27T16:47:45.119Z,31.87
2023-01-27T16:53:58.691Z,31.77
2023-01-27T16:57:05.637Z,32.40
2023-01-27T17:03:05.555Z,32.30
2023-01-27T17:06:43.324Z,32.23
2023-01-27T17:10:34.667Z,33.10
2023-01-27T17:13:50.963Z,32.93
2023-01-27T17:16:28.713Z,32.97
2023-01-27T17:19:06.833Z,31.77
2023-01-27T17:21:43.439Z,32.47
2023-01-27T17:24:20.043Z,32.40
2023-01-27T17:27:03.942Z,33.33
2023-01-27T17:29:45.393Z,32.53
2023-01-27T17:33:09.547Z,32.57
2023-01-27T17:35:52.175Z,31.90
2023-01-27T17:38:43.136Z,32.07
2023-01-27T17:41:29.854Z,32.03
2023-01-27T17:44:01.625Z,32.13
2023-01-27T17:46:33.228Z,32.00
2023-01-27T17:50:02.417Z,31.20
2023-01-27T17:58:36.003Z,32.93
2023-01-27T18:01:04.882Z,31.97
2023-01-27T18:04:26.517Z,32.20
2023-01-27T18:07:39.434Z,32.37
2023-01-27T18:10:40.779Z,32.27
2023-01-27T18:14:07.313Z,31.47
2023-01-27T18:23:48.099Z,31.67
2023-01-27T18:26:20.800Z,32.53
2023-01-27T18:28:52.182Z,32.67
2023-01-27T18:32:30.626Z,31.70
2023-01-27T18:39:42.947Z,33.00
2023-01-27T18:42:16.834Z,33.03
2023-01-27T18:44:45.011Z,33.27
2023-01-27T18:47:33.150Z,33.47
2023-01-27T18:50:14.347Z,34.13
2023-01-27T18:52:42.938Z,33.73
2023-01-27T18:55:19.726Z,33.40
2023-01-27T18:57:51.153Z,33.40
2023-01-27T19:00:21.165Z,33.57
2023-01-27T19:02:52.038Z,33.40
2023-01-27T19:05:23.247Z,33.67
2023-01-27T19:07:51.660Z,34.30
2023-01-27T19:10:24.709Z,33.20
2023-01-27T19:12:55.316Z,33.70
2023-01-27T19:15:24.807Z,33.93
2023-01-27T19:17:54.836Z,33.77
2023-01-27T19:20:24.856Z,33.10
2023-01-27T19:22:54.271Z,33.97
2023-01-27T19:25:22.849Z,33.27
2023-01-27T19:27:55.888Z,34.20
2023-01-27T19:30:27.011Z,34.27
2023-01-27T19:32:55.699Z,33.40
2023-01-27T19:35:24.803Z,33.77
2023-01-27T19:37:55.533Z,34.17
2023-01-27T19:40:25.714Z,34.50
2023-01-27T19:42:55.224Z,34.40
2023-01-27T19:45:24.108Z,34.80
2023-01-27T19:47:52.958Z,33.80
2023-01-27T19:50:23.664Z,33.83
2023-01-27T19:52:52.279Z,33.63
2023-01-27T19:55:22.077Z,34.67
2023-01-27T19:57:51.937Z,33.67
2023-01-27T20:00:25.099Z,32.73
2023-01-27T20:02:56.666Z,33.07
2023-01-27T20:05:26.060Z,33.63
2023-01-27T20:07:55.561Z,33.60
2023-01-27T20:10:26.643Z,34.30
2023-01-27T20:12:57.024Z,33.77
2023-01-27T20:15:28.032Z,35.13
2023-01-27T20:17:56.767Z,34.93
2023-01-27T20:20:26.068Z,34.17
2023-01-27T20:22:54.648Z,35.07
2023-01-27T20:25:24.572Z,34.57
2023-01-27T20:27:54.416Z,34.73
2023-01-27T20:30:25.056Z,37.27
2023-01-27T20:32:57.133Z,35.17
2023-01-27T20:35:26.259Z,37.43
2023-01-27T20:37:55.670Z,37.80
2023-01-27T20:40:25.965Z,36.27
2023-01-27T20:42:54.455Z,36.07
2023-01-27T20:45:23.582Z,36.33
2023-01-27T20:47:53.025Z,37.07
2023-01-27T20:50:25.876Z,39.83
2023-01-27T20:52:55.241Z,36.60
2023-01-27T20:55:23.828Z,36.27
2023-01-27T20:57:52.215Z,38.77
2023-01-27T21:00:22.744Z,34.60
2023-01-27T21:02:51.137Z,36.17
2023-01-27T21:05:19.395Z,36.10
2023-01-27T21:07:49.364Z,35.50
2023-01-27T21:10:21.883Z,34.97
2023-01-27T21:12:50.098Z,35.57
2023-01-27T21:15:18.327Z,35.73
2023-01-27T21:17:46.607Z,35.33
2023-01-27T21:20:14.797Z,36.83
2023-01-27T21:22:45.662Z,36.13
2023-01-27T21:25:15.478Z,35.57
2023-01-27T21:27:44.941Z,36.37
2023-01-27T21:30:13.883Z,35.33
2023-01-27T21:32:41.922Z,35.33
2023-01-27T21:35:10.102Z,37.43
2023-01-27T21:37:38.387Z,35.27
2023-01-27T21:40:07.310Z,36.40
2023-01-27T21:42:54.035Z,36.33
2023-01-27T21:45:22.108Z,36.60
2023-01-27T21:47:50.030Z,36.77
2023-01-27T21:50:18.588Z,36.57
2023-01-27T21:52:48.192Z,36.97
2023-01-27T21:55:19.810Z,35.97
2023-01-27T21:57:51.083Z,36.70
2023-01-27T22:00:21.515Z,37.03
2023-01-27T22:02:54.781Z,35.83
2023-01-27T22:05:23.023Z,36.00
2023-01-27T22:07:51.809Z,36.70
2023-01-27T22:10:21.499Z,35.37
2023-01-27T22:12:51.710Z,36.90
2023-01-27T22:15:20.978Z,37.23
2023-01-27T22:17:48.912Z,36.23
2023-01-27T22:20:18.200Z,36.60
2023-01-27T22:22:46.752Z,35.67
2023-01-27T22:25:16.854Z,35.53
2023-01-27T22:27:45.454Z,35.57
2023-01-27T22:30:19.509Z,36.40
2023-01-27T22:32:48.148Z,37.40
2023-01-27T22:35:18.130Z,35.90
2023-01-27T22:37:49.005Z,36.77
2023-01-27T22:40:17.615Z,36.20
2023-01-27T22:42:45.784Z,37.10
2023-01-27T22:45:15.731Z,36.70
2023-01-27T22:47:43.996Z,36.87
2023-01-27T22:50:13.531Z,36.53
2023-01-27T22:52:41.807Z,35.97
2023-01-27T22:55:12.463Z,35.60
2023-01-27T22:57:40.852Z,37.10
2023-01-27T23:00:10.941Z,36.83
2023-01-27T23:02:40.917Z,37.83
2023-01-27T23:05:09.869Z,37.70
2023-01-27T23:07:38.213Z,37.07
2023-01-27T23:10:07.449Z,37.40
2023-01-27T23:12:35.754Z,37.97
2023-01-27T23:15:04.116Z,38.13
2023-01-27T23:17:33.008Z,36.97
2023-01-27T23:20:02.975Z,37.87
2023-01-27T23:22:31.489Z,37.30
2023-01-27T23:24:59.695Z,37.27
2023-01-27T23:27:28.802Z,38.50
2023-01-27T23:29:57.067Z,38.03
2023-01-27T23:32:25.360Z,37.77
2023-01-27T23:34:53.686Z,38.70
2023-01-27T23:37:23.413Z,38.43
2023-01-27T23:39:51.584Z,38.80
2023-01-27T23:42:20.728Z,38.97
2023-01-27T23:44:48.807Z,38.47
2023-01-27T23:47:17.639Z,38.77
2023-01-27T23:49:45.805Z,38.30
2023-01-27T23:52:14.014Z,38.10
2023-01-27T23:54:44.096Z,38.73
2023-01-27T23:57:12.197Z,38.70
2023-01-27T23:59:41.313Z,38.10
